sensor_id;sensor_type;location;lat;lon;timestamp;P1;durP1;ratioP1;P2;durP2;ratioP2
74229;SDS011;62589;12.568;99.958;2023-05-10T00:01:43;7.30;;;5.80;;
74229;SDS011;62589;12.568;99.958;2023-05-10T00:04:10;6.85;;;5.97;;
74229;SDS011;62589;12.568;99.958;2023-05-10T00:06:36;7.32;;;5.90;;
74229;SDS011;62589;12.568;99.958;2023-05-10T00:09:03;9.27;;;6.07;;
74229;SDS011;62589;12.568;99.958;2023-05-10T00:11:29;11.43;;;6.97;;
74229;SDS011;62589;12.568;99.958;2023-05-10T00:13:56;7.45;;;6.75;;
74229;SDS011;62589;12.568;99.958;2023-05-10T00:16:22;8.88;;;6.35;;
74229;SDS011;62589;12.568;99.958;2023-05-10T00:18:48;10.80;;;7.93;;
74229;SDS011;62589;12.568;99.958;2023-05-10T00:21:15;10.82;;;7.32;;
74229;SDS011;62589;12.568;99.958;2023-05-10T00:23:41;8.73;;;6.97;;
74229;SDS011;62589;12.568;99.958;2023-05-10T00:26:07;11.00;;;7.20;;
74229;SDS011;62589;12.568;99.958;2023-05-10T00:28:34;14.15;;;7.15;;
74229;SDS011;62589;12.568;99.958;2023-05-10T00:31:00;10.68;;;6.18;;
74229;SDS011;62589;12.568;99.958;2023-05-10T00:33:26;12.27;;;4.72;;
74229;SDS011;62589;12.568;99.958;2023-05-10T00:35:53;12.23;;;3.95;;
74229;SDS011;62589;12.568;99.958;2023-05-10T00:38:19;17.92;;;3.35;;
74229;SDS011;62589;12.568;99.958;2023-05-10T00:40:51;22.48;;;3.45;;
74229;SDS011;62589;12.568;99.958;2023-05-10T00:43:24;32.42;;;3.67;;
74229;SDS011;62589;12.568;99.958;2023-05-10T00:45:51;11.88;;;2.28;;
74229;SDS011;62589;12.568;99.958;2023-05-10T00:48:18;27.02;;;5.28;;
74229;SDS011;62589;12.568;99.958;2023-05-10T00:50:45;15.65;;;4.60;;
74229;SDS011;62589;12.568;99.958;2023-05-10T00:53:15;11.45;;;3.20;;
74229;SDS011;62589;12.568;99.958;2023-05-10T00:55:45;11.48;;;3.30;;
74229;SDS011;62589;12.568;99.958;2023-05-10T00:58:11;7.20;;;2.40;;
74229;SDS011;62589;12.568;99.958;2023-05-10T01:00:56;9.48;;;2.67;;
74229;SDS011;62589;12.568;99.958;2023-05-10T01:03:27;12.23;;;3.03;;
74229;SDS011;62589;12.568;99.958;2023-05-10T01:05:54;10.35;;;3.30;;
74229;SDS011;62589;12.568;99.958;2023-05-10T01:18:32;20.40;;;5.03;;
74229;SDS011;62589;12.568;99.958;2023-05-10T02:18:48;8.52;;;2.63;;
74229;SDS011;62589;12.568;99.958;2023-05-10T02:21:15;6.40;;;2.58;;
74229;SDS011;62589;12.568;99.958;2023-05-10T02:23:43;5.20;;;1.63;;
74229;SDS011;62589;12.568;99.958;2023-05-10T02:26:11;6.13;;;2.10;;
74229;SDS011;62589;12.568;99.958;2023-05-10T02:28:40;5.80;;;1.70;;
74229;SDS011;62589;12.568;99.958;2023-05-10T02:31:08;4.25;;;1.75;;
74229;SDS011;62589;12.568;99.958;2023-05-10T02:33:37;5.78;;;1.70;;
74229;SDS011;62589;12.568;99.958;2023-05-10T02:36:06;5.13;;;1.80;;
74229;SDS011;62589;12.568;99.958;2023-05-10T02:38:35;4.82;;;2.35;;
74229;SDS011;62589;12.568;99.958;2023-05-10T02:41:02;5.28;;;2.55;;
74229;SDS011;62589;12.568;99.958;2023-05-10T02:43:32;5.30;;;2.50;;
74229;SDS011;62589;12.568;99.958;2023-05-10T02:45:59;8.52;;;2.70;;
74229;SDS011;62589;12.568;99.958;2023-05-10T02:48:26;3.47;;;2.33;;
74229;SDS011;62589;12.568;99.958;2023-05-10T02:50:52;9.63;;;2.00;;
74229;SDS011;62589;12.568;99.958;2023-05-10T02:53:28;3.88;;;1.67;;
74229;SDS011;62589;12.568;99.958;2023-05-10T02:55:58;5.47;;;1.90;;
74229;SDS011;62589;12.568;99.958;2023-05-10T02:58:29;4.53;;;1.63;;
74229;SDS011;62589;12.568;99.958;2023-05-10T03:01:12;6.57;;;1.60;;
74229;SDS011;62589;12.568;99.958;2023-05-10T03:03:38;4.22;;;1.67;;
74229;SDS011;62589;12.568;99.958;2023-05-10T03:06:05;2.47;;;1.23;;
74229;SDS011;62589;12.568;99.958;2023-05-10T03:08:31;3.67;;;1.55;;
74229;SDS011;62589;12.568;99.958;2023-05-10T03:11:10;2.63;;;1.27;;
74229;SDS011;62589;12.568;99.958;2023-05-10T03:17:13;4.20;;;1.60;;
74229;SDS011;62589;12.568;99.958;2023-05-10T03:19:55;3.45;;;1.58;;
74229;SDS011;62589;12.568;99.958;2023-05-10T03:22:39;5.25;;;2.00;;
74229;SDS011;62589;12.568;99.958;2023-05-10T03:25:11;4.57;;;2.60;;
74229;SDS011;62589;12.568;99.958;2023-05-10T03:27:41;9.32;;;2.90;;
74229;SDS011;62589;12.568;99.958;2023-05-10T03:30:11;5.22;;;3.42;;
74229;SDS011;62589;12.568;99.958;2023-05-10T03:32:39;5.90;;;2.33;;
74229;SDS011;62589;12.568;99.958;2023-05-10T03:35:09;6.88;;;2.72;;
74229;SDS011;62589;12.568;99.958;2023-05-10T03:37:37;7.35;;;3.13;;
74229;SDS011;62589;12.568;99.958;2023-05-10T03:40:03;4.50;;;2.50;;
74229;SDS011;62589;12.568;99.958;2023-05-10T03:42:31;5.35;;;2.25;;
74229;SDS011;62589;12.568;99.958;2023-05-10T03:44:57;5.07;;;1.95;;
74229;SDS011;62589;12.568;99.958;2023-05-10T03:47:23;4.05;;;2.20;;
74229;SDS011;62589;12.568;99.958;2023-05-10T03:49:50;4.82;;;2.13;;
74229;SDS011;62589;12.568;99.958;2023-05-10T03:52:16;2.55;;;1.88;;
74229;SDS011;62589;12.568;99.958;2023-05-10T03:54:43;4.63;;;1.80;;
74229;SDS011;62589;12.568;99.958;2023-05-10T03:57:09;2.80;;;1.98;;
74229;SDS011;62589;12.568;99.958;2023-05-10T03:59:36;3.13;;;1.55;;
74229;SDS011;62589;12.568;99.958;2023-05-10T04:07:56;3.25;;;1.80;;
74229;SDS011;62589;12.568;99.958;2023-05-10T04:10:23;3.13;;;1.88;;
74229;SDS011;62589;12.568;99.958;2023-05-10T04:12:49;2.63;;;1.83;;
74229;SDS011;62589;12.568;99.958;2023-05-10T04:15:16;2.72;;;1.88;;
74229;SDS011;62589;12.568;99.958;2023-05-10T04:17:42;4.32;;;2.00;;
74229;SDS011;62589;12.568;99.958;2023-05-10T04:20:09;4.38;;;1.70;;
74229;SDS011;62589;12.568;99.958;2023-05-10T04:22:36;3.72;;;1.90;;
74229;SDS011;62589;12.568;99.958;2023-05-10T04:25:02;4.15;;;2.15;;
74229;SDS011;62589;12.568;99.958;2023-05-10T04:27:30;2.67;;;1.70;;
74229;SDS011;62589;12.568;99.958;2023-05-10T04:29:56;3.58;;;2.00;;
74229;SDS011;62589;12.568;99.958;2023-05-10T04:32:26;5.53;;;2.40;;
74229;SDS011;62589;12.568;99.958;2023-05-10T04:34:52;2.78;;;1.88;;
74229;SDS011;62589;12.568;99.958;2023-05-10T04:37:18;3.20;;;1.77;;
74229;SDS011;62589;12.568;99.958;2023-05-10T04:39:46;3.05;;;1.85;;
74229;SDS011;62589;12.568;99.958;2023-05-10T04:42:13;2.45;;;1.67;;
74229;SDS011;62589;12.568;99.958;2023-05-10T04:44:40;2.25;;;1.90;;
74229;SDS011;62589;12.568;99.958;2023-05-10T04:47:06;1.38;;;1.27;;
74229;SDS011;62589;12.568;99.958;2023-05-10T04:49:33;3.03;;;1.80;;
74229;SDS011;62589;12.568;99.958;2023-05-10T04:51:59;2.50;;;1.80;;
74229;SDS011;62589;12.568;99.958;2023-05-10T04:54:26;2.50;;;1.60;;
74229;SDS011;62589;12.568;99.958;2023-05-10T04:56:52;3.05;;;1.77;;
74229;SDS011;62589;12.568;99.958;2023-05-10T04:59:18;3.40;;;1.45;;
74229;SDS011;62589;12.568;99.958;2023-05-10T05:04:20;1.50;;;1.40;;
74229;SDS011;62589;12.568;99.958;2023-05-10T05:06:48;1.58;;;1.48;;
74229;SDS011;62589;12.568;99.958;2023-05-10T05:09:15;2.75;;;1.83;;
74229;SDS011;62589;12.568;99.958;2023-05-10T05:11:42;2.40;;;1.60;;
74229;SDS011;62589;12.568;99.958;2023-05-10T05:14:11;2.30;;;1.90;;
74229;SDS011;62589;12.568;99.958;2023-05-10T05:16:37;2.13;;;1.88;;
74229;SDS011;62589;12.568;99.958;2023-05-10T05:19:04;2.38;;;1.83;;
74229;SDS011;62589;12.568;99.958;2023-05-10T05:35:18;4.03;;;1.80;;
74229;SDS011;62589;12.568;99.958;2023-05-10T05:37:45;2.67;;;2.10;;
74229;SDS011;62589;12.568;99.958;2023-05-10T05:40:14;3.03;;;1.75;;
74229;SDS011;62589;12.568;99.958;2023-05-10T05:42:41;2.83;;;1.77;;
74229;SDS011;62589;12.568;99.958;2023-05-10T05:45:07;3.80;;;2.20;;
74229;SDS011;62589;12.568;99.958;2023-05-10T05:47:38;2.47;;;1.75;;
74229;SDS011;62589;12.568;99.958;2023-05-10T05:50:05;2.60;;;1.75;;
74229;SDS011;62589;12.568;99.958;2023-05-10T05:52:32;2.10;;;1.60;;
74229;SDS011;62589;12.568;99.958;2023-05-10T05:54:58;2.33;;;1.65;;
74229;SDS011;62589;12.568;99.958;2023-05-10T05:57:25;1.63;;;1.30;;
74229;SDS011;62589;12.568;99.958;2023-05-10T05:59:51;2.35;;;1.70;;
74229;SDS011;62589;12.568;99.958;2023-05-10T06:02:18;1.92;;;1.67;;
74229;SDS011;62589;12.568;99.958;2023-05-10T06:04:44;2.10;;;1.70;;
74229;SDS011;62589;12.568;99.958;2023-05-10T06:07:11;4.72;;;1.75;;
74229;SDS011;62589;12.568;99.958;2023-05-10T06:09:38;2.60;;;1.80;;
74229;SDS011;62589;12.568;99.958;2023-05-10T06:12:04;2.13;;;1.92;;
74229;SDS011;62589;12.568;99.958;2023-05-10T06:14:31;4.95;;;2.28;;
74229;SDS011;62589;12.568;99.958;2023-05-10T06:16:57;3.05;;;1.77;;
74229;SDS011;62589;12.568;99.958;2023-05-10T06:19:24;1.30;;;1.20;;
74229;SDS011;62589;12.568;99.958;2023-05-10T06:21:51;2.28;;;1.50;;
74229;SDS011;62589;12.568;99.958;2023-05-10T06:24:18;2.08;;;1.50;;
74229;SDS011;62589;12.568;99.958;2023-05-10T06:26:44;2.10;;;1.50;;
74229;SDS011;62589;12.568;99.958;2023-05-10T06:29:10;1.98;;;1.60;;
74229;SDS011;62589;12.568;99.958;2023-05-10T06:31:37;1.35;;;1.25;;
74229;SDS011;62589;12.568;99.958;2023-05-10T06:34:03;3.60;;;1.45;;
74229;SDS011;62589;12.568;99.958;2023-05-10T06:36:29;1.70;;;1.50;;
74229;SDS011;62589;12.568;99.958;2023-05-10T06:38:56;1.55;;;1.42;;
74229;SDS011;62589;12.568;99.958;2023-05-10T06:41:22;1.40;;;1.30;;
74229;SDS011;62589;12.568;99.958;2023-05-10T06:43:49;2.13;;;1.63;;
74229;SDS011;62589;12.568;99.958;2023-05-10T06:46:15;1.90;;;1.42;;
74229;SDS011;62589;12.568;99.958;2023-05-10T06:48:41;2.15;;;1.70;;
74229;SDS011;62589;12.568;99.958;2023-05-10T06:51:08;3.28;;;1.45;;
74229;SDS011;62589;12.568;99.958;2023-05-10T06:53:34;1.70;;;1.30;;
74229;SDS011;62589;12.568;99.958;2023-05-10T06:56:00;2.00;;;1.55;;
74229;SDS011;62589;12.568;99.958;2023-05-10T06:58:28;2.20;;;1.98;;
74229;SDS011;62589;12.568;99.958;2023-05-10T07:00:54;3.58;;;1.80;;
74229;SDS011;62589;12.568;99.958;2023-05-10T07:03:28;2.83;;;1.92;;
74229;SDS011;62589;12.568;99.958;2023-05-10T07:05:59;2.00;;;1.40;;
74229;SDS011;62589;12.568;99.958;2023-05-10T07:08:29;2.08;;;1.67;;
74229;SDS011;62589;12.568;99.958;2023-05-10T07:11:02;3.17;;;1.65;;
74229;SDS011;62589;12.568;99.958;2023-05-10T07:13:38;2.42;;;1.60;;
74229;SDS011;62589;12.568;99.958;2023-05-10T07:16:06;1.92;;;1.40;;
74229;SDS011;62589;12.568;99.958;2023-05-10T07:18:33;1.77;;;1.50;;
74229;SDS011;62589;12.568;99.958;2023-05-10T07:20:59;2.33;;;1.48;;
74229;SDS011;62589;12.568;99.958;2023-05-10T07:23:25;1.92;;;1.42;;
74229;SDS011;62589;12.568;99.958;2023-05-10T07:25:52;2.28;;;1.77;;
74229;SDS011;62589;12.568;99.958;2023-05-10T07:28:19;1.90;;;1.65;;
74229;SDS011;62589;12.568;99.958;2023-05-10T07:30:45;2.40;;;1.52;;
74229;SDS011;62589;12.568;99.958;2023-05-10T07:33:12;2.22;;;1.55;;
74229;SDS011;62589;12.568;99.958;2023-05-10T07:35:40;1.67;;;1.40;;
74229;SDS011;62589;12.568;99.958;2023-05-10T07:38:06;1.98;;;1.67;;
74229;SDS011;62589;12.568;99.958;2023-05-10T07:40:32;2.72;;;1.42;;
74229;SDS011;62589;12.568;99.958;2023-05-10T07:42:59;1.48;;;1.35;;
74229;SDS011;62589;12.568;99.958;2023-05-10T07:45:27;1.45;;;1.35;;
74229;SDS011;62589;12.568;99.958;2023-05-10T07:47:53;1.52;;;1.20;;
74229;SDS011;62589;12.568;99.958;2023-05-10T07:50:20;1.40;;;1.30;;
74229;SDS011;62589;12.568;99.958;2023-05-10T07:52:46;1.90;;;1.27;;
74229;SDS011;62589;12.568;99.958;2023-05-10T07:55:13;2.17;;;1.25;;
74229;SDS011;62589;12.568;99.958;2023-05-10T07:57:40;1.45;;;1.10;;
74229;SDS011;62589;12.568;99.958;2023-05-10T08:00:07;1.33;;;1.00;;
74229;SDS011;62589;12.568;99.958;2023-05-10T08:02:35;1.50;;;1.33;;
74229;SDS011;62589;12.568;99.958;2023-05-10T08:05:01;1.20;;;1.10;;
74229;SDS011;62589;12.568;99.958;2023-05-10T08:07:28;1.67;;;1.33;;
74229;SDS011;62589;12.568;99.958;2023-05-10T08:09:55;2.08;;;1.00;;
74229;SDS011;62589;12.568;99.958;2023-05-10T08:12:22;1.42;;;1.25;;
74229;SDS011;62589;12.568;99.958;2023-05-10T08:14:48;1.00;;;1.00;;
74229;SDS011;62589;12.568;99.958;2023-05-10T08:17:14;1.67;;;1.17;;
74229;SDS011;62589;12.568;99.958;2023-05-10T08:19:41;1.45;;;1.13;;
74229;SDS011;62589;12.568;99.958;2023-05-10T08:22:07;1.50;;;1.40;;
74229;SDS011;62589;12.568;99.958;2023-05-10T08:24:33;1.13;;;1.10;;
74229;SDS011;62589;12.568;99.958;2023-05-10T08:27:04;1.35;;;1.25;;
74229;SDS011;62589;12.568;99.958;2023-05-10T08:29:31;1.55;;;1.15;;
74229;SDS011;62589;12.568;99.958;2023-05-10T08:31:57;1.55;;;1.45;;
74229;SDS011;62589;12.568;99.958;2023-05-10T08:34:24;1.55;;;1.13;;
74229;SDS011;62589;12.568;99.958;2023-05-10T08:36:51;1.00;;;0.95;;
74229;SDS011;62589;12.568;99.958;2023-05-10T08:39:17;2.15;;;1.40;;
74229;SDS011;62589;12.568;99.958;2023-05-10T08:41:43;1.77;;;1.40;;
74229;SDS011;62589;12.568;99.958;2023-05-10T08:44:12;1.40;;;1.30;;
74229;SDS011;62589;12.568;99.958;2023-05-10T08:46:39;1.60;;;1.35;;
74229;SDS011;62589;12.568;99.958;2023-05-10T08:49:10;1.55;;;1.42;;
74229;SDS011;62589;12.568;99.958;2023-05-10T08:51:44;1.85;;;1.75;;
74229;SDS011;62589;12.568;99.958;2023-05-10T08:54:16;1.33;;;1.23;;
74229;SDS011;62589;12.568;99.958;2023-05-10T08:56:43;1.20;;;1.10;;
74229;SDS011;62589;12.568;99.958;2023-05-10T08:59:09;1.15;;;1.05;;
74229;SDS011;62589;12.568;99.958;2023-05-10T09:01:37;1.10;;;1.10;;
74229;SDS011;62589;12.568;99.958;2023-05-10T09:04:04;2.38;;;1.35;;
74229;SDS011;62589;12.568;99.958;2023-05-10T09:06:31;1.23;;;1.13;;
74229;SDS011;62589;12.568;99.958;2023-05-10T09:08:58;1.63;;;1.30;;
74229;SDS011;62589;12.568;99.958;2023-05-10T09:11:26;1.55;;;1.30;;
74229;SDS011;62589;12.568;99.958;2023-05-10T09:13:54;1.50;;;1.40;;
74229;SDS011;62589;12.568;99.958;2023-05-10T09:16:21;1.70;;;1.48;;
74229;SDS011;62589;12.568;99.958;2023-05-10T09:18:49;2.28;;;1.70;;
74229;SDS011;62589;12.568;99.958;2023-05-10T09:21:15;2.10;;;1.35;;
74229;SDS011;62589;12.568;99.958;2023-05-10T09:23:45;2.45;;;1.38;;
74229;SDS011;62589;12.568;99.958;2023-05-10T09:26:15;2.10;;;1.45;;
74229;SDS011;62589;12.568;99.958;2023-05-10T09:28:52;1.30;;;1.20;;
74229;SDS011;62589;12.568;99.958;2023-05-10T09:31:20;1.75;;;1.33;;
74229;SDS011;62589;12.568;99.958;2023-05-10T09:33:47;1.60;;;1.50;;
74229;SDS011;62589;12.568;99.958;2023-05-10T09:36:15;1.70;;;1.38;;
74229;SDS011;62589;12.568;99.958;2023-05-10T09:38:48;2.10;;;1.63;;
74229;SDS011;62589;12.568;99.958;2023-05-10T09:41:23;1.80;;;1.50;;
74229;SDS011;62589;12.568;99.958;2023-05-10T09:43:50;1.67;;;1.40;;
74229;SDS011;62589;12.568;99.958;2023-05-10T09:46:21;2.33;;;1.65;;
74229;SDS011;62589;12.568;99.958;2023-05-10T09:48:48;2.08;;;1.55;;
74229;SDS011;62589;12.568;99.958;2023-05-10T09:51:20;1.75;;;1.50;;
74229;SDS011;62589;12.568;99.958;2023-05-10T09:53:48;2.13;;;1.63;;
74229;SDS011;62589;12.568;99.958;2023-05-10T09:56:35;1.73;;;1.63;;
74229;SDS011;62589;12.568;99.958;2023-05-10T09:59:04;2.22;;;1.60;;
74229;SDS011;62589;12.568;99.958;2023-05-10T10:01:31;2.25;;;1.70;;
74229;SDS011;62589;12.568;99.958;2023-05-10T10:03:57;1.83;;;1.60;;
74229;SDS011;62589;12.568;99.958;2023-05-10T10:06:24;2.72;;;1.85;;
74229;SDS011;62589;12.568;99.958;2023-05-10T10:08:51;1.70;;;1.52;;
74229;SDS011;62589;12.568;99.958;2023-05-10T10:11:19;3.47;;;2.08;;
74229;SDS011;62589;12.568;99.958;2023-05-10T10:13:46;2.17;;;1.63;;
74229;SDS011;62589;12.568;99.958;2023-05-10T10:16:12;2.05;;;1.42;;
74229;SDS011;62589;12.568;99.958;2023-05-10T10:18:39;3.40;;;2.08;;
74229;SDS011;62589;12.568;99.958;2023-05-10T10:21:06;2.60;;;1.73;;
74229;SDS011;62589;12.568;99.958;2023-05-10T10:23:37;1.70;;;1.60;;
74229;SDS011;62589;12.568;99.958;2023-05-10T10:26:04;2.05;;;1.83;;
74229;SDS011;62589;12.568;99.958;2023-05-10T10:28:40;2.03;;;1.83;;
74229;SDS011;62589;12.568;99.958;2023-05-10T10:31:32;2.28;;;2.05;;
74229;SDS011;62589;12.568;99.958;2023-05-10T10:36:58;2.13;;;1.92;;
74229;SDS011;62589;12.568;99.958;2023-05-10T10:39:30;2.30;;;1.98;;
74229;SDS011;62589;12.568;99.958;2023-05-10T10:41:58;2.92;;;2.00;;
74229;SDS011;62589;12.568;99.958;2023-05-10T10:44:26;2.47;;;2.28;;
74229;SDS011;62589;12.568;99.958;2023-05-10T10:47:05;3.85;;;2.20;;
74229;SDS011;62589;12.568;99.958;2023-05-10T10:50:04;3.78;;;2.60;;
74229;SDS011;62589;12.568;99.958;2023-05-10T10:52:34;4.75;;;2.60;;
74229;SDS011;62589;12.568;99.958;2023-05-10T10:55:05;2.25;;;2.05;;
74229;SDS011;62589;12.568;99.958;2023-05-10T10:57:44;2.15;;;1.92;;
74229;SDS011;62589;12.568;99.958;2023-05-10T11:00:28;2.30;;;2.10;;
74229;SDS011;62589;12.568;99.958;2023-05-10T11:03:10;3.17;;;2.40;;
74229;SDS011;62589;12.568;99.958;2023-05-10T11:05:47;5.63;;;2.80;;
74229;SDS011;62589;12.568;99.958;2023-05-10T11:08:30;3.00;;;2.47;;
74229;SDS011;62589;12.568;99.958;2023-05-10T11:11:04;3.20;;;2.90;;
74229;SDS011;62589;12.568;99.958;2023-05-10T11:13:39;6.57;;;3.85;;
74229;SDS011;62589;12.568;99.958;2023-05-10T11:16:14;3.83;;;2.93;;
74229;SDS011;62589;12.568;99.958;2023-05-10T11:18:53;6.10;;;4.38;;
74229;SDS011;62589;12.568;99.958;2023-05-10T11:21:30;5.63;;;3.13;;
74229;SDS011;62589;12.568;99.958;2023-05-10T11:23:58;3.28;;;2.80;;
74229;SDS011;62589;12.568;99.958;2023-05-10T11:26:30;4.50;;;3.50;;
74229;SDS011;62589;12.568;99.958;2023-05-10T11:28:59;4.47;;;3.00;;
74229;SDS011;62589;12.568;99.958;2023-05-10T11:31:27;5.82;;;3.22;;
74229;SDS011;62589;12.568;99.958;2023-05-10T11:33:55;3.63;;;3.17;;
74229;SDS011;62589;12.568;99.958;2023-05-10T11:36:25;7.28;;;3.75;;
74229;SDS011;62589;12.568;99.958;2023-05-10T11:38:55;4.35;;;2.90;;
74229;SDS011;62589;12.568;99.958;2023-05-10T11:41:23;6.38;;;3.38;;
74229;SDS011;62589;12.568;99.958;2023-05-10T11:43:51;6.35;;;3.65;;
74229;SDS011;62589;12.568;99.958;2023-05-10T11:46:20;4.78;;;2.75;;
74229;SDS011;62589;12.568;99.958;2023-05-10T11:48:49;3.90;;;2.72;;
74229;SDS011;62589;12.568;99.958;2023-05-10T11:51:20;6.63;;;3.67;;
74229;SDS011;62589;12.568;99.958;2023-05-10T11:53:48;5.82;;;3.35;;
74229;SDS011;62589;12.568;99.958;2023-05-10T11:56:18;7.35;;;3.58;;
74229;SDS011;62589;12.568;99.958;2023-05-10T11:58:51;4.35;;;3.28;;
74229;SDS011;62589;12.568;99.958;2023-05-10T12:01:21;3.55;;;2.92;;
74229;SDS011;62589;12.568;99.958;2023-05-10T12:03:49;4.40;;;3.28;;
74229;SDS011;62589;12.568;99.958;2023-05-10T12:06:18;3.70;;;3.35;;
74229;SDS011;62589;12.568;99.958;2023-05-10T12:08:46;3.63;;;2.85;;
74229;SDS011;62589;12.568;99.958;2023-05-10T12:11:13;5.22;;;2.53;;
74229;SDS011;62589;12.568;99.958;2023-05-10T12:13:43;2.33;;;2.13;;
74229;SDS011;62589;12.568;99.958;2023-05-10T12:16:17;2.45;;;2.22;;
74229;SDS011;62589;12.568;99.958;2023-05-10T12:18:49;2.50;;;2.30;;
74229;SDS011;62589;12.568;99.958;2023-05-10T12:21:17;3.78;;;2.58;;
74229;SDS011;62589;12.568;99.958;2023-05-10T12:23:45;2.80;;;2.50;;
74229;SDS011;62589;12.568;99.958;2023-05-10T12:26:13;2.22;;;2.03;;
74229;SDS011;62589;12.568;99.958;2023-05-10T12:28:39;2.65;;;2.45;;
74229;SDS011;62589;12.568;99.958;2023-05-10T12:31:06;2.95;;;2.40;;
74229;SDS011;62589;12.568;99.958;2023-05-10T12:33:40;2.78;;;2.25;;
74229;SDS011;62589;12.568;99.958;2023-05-10T12:36:08;2.90;;;2.70;;
74229;SDS011;62589;12.568;99.958;2023-05-10T12:38:37;3.97;;;2.47;;
74229;SDS011;62589;12.568;99.958;2023-05-10T12:41:05;2.63;;;2.42;;
74229;SDS011;62589;12.568;99.958;2023-05-10T12:43:34;3.35;;;2.88;;
74229;SDS011;62589;12.568;99.958;2023-05-10T12:46:11;3.05;;;2.42;;
74229;SDS011;62589;12.568;99.958;2023-05-10T12:48:39;3.53;;;2.47;;
74229;SDS011;62589;12.568;99.958;2023-05-10T12:51:07;3.03;;;2.70;;
74229;SDS011;62589;12.568;99.958;2023-05-10T12:53:40;3.22;;;2.92;;
74229;SDS011;62589;12.568;99.958;2023-05-10T12:56:07;2.53;;;2.30;;
74229;SDS011;62589;12.568;99.958;2023-05-10T12:58:33;3.55;;;2.90;;
74229;SDS011;62589;12.568;99.958;2023-05-10T13:01:00;3.50;;;2.92;;
74229;SDS011;62589;12.568;99.958;2023-05-10T13:03:27;3.55;;;2.55;;
74229;SDS011;62589;12.568;99.958;2023-05-10T13:05:53;3.45;;;2.70;;
74229;SDS011;62589;12.568;99.958;2023-05-10T13:08:20;2.70;;;2.50;;
74229;SDS011;62589;12.568;99.958;2023-05-10T13:10:46;3.80;;;2.78;;
74229;SDS011;62589;12.568;99.958;2023-05-10T13:13:13;2.70;;;2.50;;
74229;SDS011;62589;12.568;99.958;2023-05-10T13:15:40;2.67;;;2.47;;
74229;SDS011;62589;12.568;99.958;2023-05-10T13:18:06;3.50;;;2.92;;
74229;SDS011;62589;12.568;99.958;2023-05-10T13:20:33;3.40;;;2.97;;
74229;SDS011;62589;12.568;99.958;2023-05-10T13:22:59;3.17;;;2.70;;
74229;SDS011;62589;12.568;99.958;2023-05-10T13:25:26;3.10;;;2.60;;
74229;SDS011;62589;12.568;99.958;2023-05-10T13:27:52;3.03;;;2.65;;
74229;SDS011;62589;12.568;99.958;2023-05-10T13:30:19;3.38;;;2.95;;
74229;SDS011;62589;12.568;99.958;2023-05-10T13:32:45;4.03;;;2.78;;
74229;SDS011;62589;12.568;99.958;2023-05-10T13:35:12;2.95;;;2.65;;
74229;SDS011;62589;12.568;99.958;2023-05-10T13:37:38;3.65;;;2.47;;
74229;SDS011;62589;12.568;99.958;2023-05-10T13:40:05;3.35;;;2.20;;
74229;SDS011;62589;12.568;99.958;2023-05-10T13:42:32;2.30;;;2.10;;
74229;SDS011;62589;12.568;99.958;2023-05-10T13:44:59;2.78;;;2.45;;
74229;SDS011;62589;12.568;99.958;2023-05-10T13:47:27;2.95;;;2.65;;
74229;SDS011;62589;12.568;99.958;2023-05-10T13:49:53;2.17;;;1.92;;
74229;SDS011;62589;12.568;99.958;2023-05-10T13:52:20;2.92;;;2.20;;
74229;SDS011;62589;12.568;99.958;2023-05-10T13:54:46;2.63;;;2.00;;
74229;SDS011;62589;12.568;99.958;2023-05-10T13:57:12;2.78;;;2.33;;
74229;SDS011;62589;12.568;99.958;2023-05-10T13:59:39;2.38;;;2.17;;
74229;SDS011;62589;12.568;99.958;2023-05-10T14:02:05;3.67;;;2.90;;
74229;SDS011;62589;12.568;99.958;2023-05-10T14:04:32;3.35;;;2.38;;
74229;SDS011;62589;12.568;99.958;2023-05-10T14:07:00;2.83;;;2.13;;
74229;SDS011;62589;12.568;99.958;2023-05-10T14:09:27;3.92;;;2.75;;
74229;SDS011;62589;12.568;99.958;2023-05-10T14:11:53;2.78;;;2.53;;
74229;SDS011;62589;12.568;99.958;2023-05-10T14:14:21;4.22;;;3.10;;
74229;SDS011;62589;12.568;99.958;2023-05-10T14:16:47;4.28;;;3.30;;
74229;SDS011;62589;12.568;99.958;2023-05-10T14:19:13;5.50;;;3.50;;
74229;SDS011;62589;12.568;99.958;2023-05-10T14:21:40;4.60;;;3.58;;
74229;SDS011;62589;12.568;99.958;2023-05-10T14:24:06;6.40;;;4.35;;
74229;SDS011;62589;12.568;99.958;2023-05-10T14:26:33;6.10;;;4.00;;
74229;SDS011;62589;12.568;99.958;2023-05-10T14:28:59;4.28;;;3.72;;
74229;SDS011;62589;12.568;99.958;2023-05-10T14:31:26;8.20;;;3.97;;
74229;SDS011;62589;12.568;99.958;2023-05-10T14:33:52;4.97;;;4.13;;
74229;SDS011;62589;12.568;99.958;2023-05-10T14:36:19;5.10;;;4.32;;
74229;SDS011;62589;12.568;99.958;2023-05-10T14:38:45;5.03;;;3.67;;
74229;SDS011;62589;12.568;99.958;2023-05-10T14:41:12;5.10;;;3.33;;
74229;SDS011;62589;12.568;99.958;2023-05-10T14:43:40;6.05;;;3.90;;
74229;SDS011;62589;12.568;99.958;2023-05-10T14:46:07;5.13;;;3.63;;
74229;SDS011;62589;12.568;99.958;2023-05-10T14:48:34;5.30;;;4.60;;
74229;SDS011;62589;12.568;99.958;2023-05-10T14:51:00;6.13;;;5.53;;
74229;SDS011;62589;12.568;99.958;2023-05-10T14:53:27;6.75;;;5.28;;
74229;SDS011;62589;12.568;99.958;2023-05-10T14:55:53;6.38;;;5.35;;
74229;SDS011;62589;12.568;99.958;2023-05-10T14:58:19;7.25;;;5.63;;
74229;SDS011;62589;12.568;99.958;2023-05-10T15:00:46;5.50;;;5.00;;
74229;SDS011;62589;12.568;99.958;2023-05-10T15:03:12;7.32;;;4.82;;
74229;SDS011;62589;12.568;99.958;2023-05-10T15:05:39;6.38;;;5.10;;
74229;SDS011;62589;12.568;99.958;2023-05-10T15:08:05;7.28;;;4.78;;
74229;SDS011;62589;12.568;99.958;2023-05-10T15:10:32;5.88;;;5.28;;
74229;SDS011;62589;12.568;99.958;2023-05-10T15:12:59;7.10;;;6.40;;
74229;SDS011;62589;12.568;99.958;2023-05-10T15:15:25;8.30;;;7.50;;
74229;SDS011;62589;12.568;99.958;2023-05-10T15:17:52;8.20;;;7.05;;
74229;SDS011;62589;12.568;99.958;2023-05-10T15:20:18;8.68;;;7.78;;
74229;SDS011;62589;12.568;99.958;2023-05-10T15:22:44;11.48;;;8.25;;
74229;SDS011;62589;12.568;99.958;2023-05-10T15:25:12;9.63;;;8.68;;
74229;SDS011;62589;12.568;99.958;2023-05-10T15:27:40;9.98;;;8.98;;
74229;SDS011;62589;12.568;99.958;2023-05-10T15:30:09;11.45;;;9.98;;
74229;SDS011;62589;12.568;99.958;2023-05-10T15:32:36;12.23;;;10.48;;
74229;SDS011;62589;12.568;99.958;2023-05-10T15:35:04;11.68;;;9.88;;
74229;SDS011;62589;12.568;99.958;2023-05-10T15:37:32;11.52;;;10.02;;
74229;SDS011;62589;12.568;99.958;2023-05-10T15:39:58;11.38;;;9.23;;
74229;SDS011;62589;12.568;99.958;2023-05-10T15:42:31;10.02;;;8.93;;
74229;SDS011;62589;12.568;99.958;2023-05-10T15:44:58;9.20;;;8.35;;
74229;SDS011;62589;12.568;99.958;2023-05-10T15:47:25;9.82;;;8.05;;
74229;SDS011;62589;12.568;99.958;2023-05-10T15:49:53;10.13;;;8.13;;
74229;SDS011;62589;12.568;99.958;2023-05-10T15:52:20;11.65;;;7.63;;
74229;SDS011;62589;12.568;99.958;2023-05-10T15:54:48;10.52;;;8.77;;
74229;SDS011;62589;12.568;99.958;2023-05-10T15:57:15;10.85;;;9.75;;
74229;SDS011;62589;12.568;99.958;2023-05-10T15:59:41;10.90;;;9.63;;
74229;SDS011;62589;12.568;99.958;2023-05-10T16:02:08;14.20;;;11.13;;
74229;SDS011;62589;12.568;99.958;2023-05-10T16:04:36;13.60;;;12.00;;
74229;SDS011;62589;12.568;99.958;2023-05-10T16:07:03;12.82;;;11.57;;
74229;SDS011;62589;12.568;99.958;2023-05-10T16:09:29;12.38;;;11.07;;
74229;SDS011;62589;12.568;99.958;2023-05-10T16:11:56;13.80;;;11.70;;
74229;SDS011;62589;12.568;99.958;2023-05-10T16:14:22;14.48;;;11.88;;
74229;SDS011;62589;12.568;99.958;2023-05-10T16:16:49;12.95;;;10.48;;